WoTS Next — VJN3036 — position and weather

sailwx.info

Track history (hours):
 
Tides and Currents Weather Stations Pressure Air Temp Water Temp Dewpoint Dewpoint Depression Visibility Wind Speed Wind Dir Waves Ship Positions

WoTS Next

Last reported at 2018-Apr-16 09:00 UTC. Time now 2018-Apr-21 17:07 UTC.
Position S 33°39' E 151°17'.

Length 15 m.

Type: Sailing vessel. MMSI: 503089100.

Date/timePositionNaut miles runAvg speedWind from/ knotsBaromVisibWave heightAir tempDewpointWater temp
2018-Apr-16 09:00S 33°39' E 151°17'60 6.8
2018-Apr-16 00:10S 32°57' E 152°08'2 8.5
2018-Apr-15 23:53S 32°55' E 152°09'3 8.9
2018-Apr-15 23:30S 32°51' E 152°10'4 8.9
2018-Apr-15 23:00S 32°47' E 152°12'4 7.8
2018-Apr-15 22:30S 32°43' E 152°12'3 5.9
2018-Apr-15 22:00S 32°43' E 152°09'3 6.4
2018-Apr-15 21:30S 32°42' E 152°05'1 2.2
2018-Apr-15 20:58S 32°42' E 152°04'0 0.0
2018-Apr-15 03:35S 32°42' E 152°04'0 0.0
2018-Apr-15 03:29S 32°42' E 152°04'0 0.0
2018-Apr-15 02:59S 32°42' E 152°04'0 0.0
2018-Apr-15 02:29S 32°42' E 152°04'0 0.0
2018-Apr-15 01:59S 32°42' E 152°04'0 0.0
2018-Apr-15 01:29S 32°42' E 152°04'0 0.0
2018-Apr-15 00:59S 32°42' E 152°04'0 0.0
2018-Apr-15 00:29S 32°42' E 152°04'0 0.0
2018-Apr-14 23:59S 32°42' E 152°04'0 0.0
2018-Apr-14 23:29S 32°42' E 152°04'0 0.0
2018-Apr-14 05:35S 32°42' E 152°04'0 0.0
2018-Apr-14 05:30S 32°42' E 152°04'2 4.3
2018-Apr-14 05:00S 32°43' E 152°06'3 5.5
2018-Apr-14 04:30S 32°43' E 152°09'3 5.5
2018-Apr-14 04:00S 32°42' E 152°13'3 6.3
2018-Apr-14 03:30S 32°39' E 152°13'4 7.2
2018-Apr-14 03:00S 32°38' E 152°17'3 5.0
2018-Apr-14 02:30S 32°40' E 152°15'3 6.0
2018-Apr-14 02:00S 32°42' E 152°13'4 7.1
2018-Apr-14 01:30S 32°43' E 152°08'0 0.9
2018-Apr-14 01:00S 32°43' E 152°09'2 3.5
2018-Apr-14 00:30S 32°43' E 152°07'3 5.2
2018-Apr-13 23:59S 32°42' E 152°04'0 0.0
2018-Apr-13 23:29S 32°42' E 152°04'0 0.0
2018-Apr-13 22:59S 32°42' E 152°04'0 0.0
2018-Apr-13 05:29S 32°42' E 152°04'1 1.4
2018-Apr-13 04:59S 32°42' E 152°04'3 6.8
2018-Apr-13 04:30S 32°43' E 152°08'3 5.6
2018-Apr-13 04:00S 32°42' E 152°12'2 4.8
2018-Apr-13 03:30S 32°42' E 152°14'1 1.6
2018-Apr-13 03:00S 32°42' E 152°14'2 2.7
2018-Apr-13 02:26S 32°41' E 152°14'2 4.8
2018-Apr-13 02:00S 32°42' E 152°12'3 6.7
2018-Apr-13 01:30S 32°43' E 152°08'1 1.0
2018-Apr-13 01:00S 32°43' E 152°09'2 4.9
2018-Apr-13 00:30S 32°43' E 152°06'2 4.4
2018-Apr-13 00:00S 32°42' E 152°04'0 0.3
2018-Apr-12 23:30S 32°42' E 152°04'0 0.0
2018-Apr-12 23:00S 32°42' E 152°04'0 0.0
2018-Apr-12 02:55S 32°42' E 152°04'0 0.0
2018-Apr-12 02:28S 32°42' E 152°04'0 0.0
2018-Apr-12 01:58S 32°42' E 152°04'0 0.0
2018-Apr-12 01:28S 32°42' E 152°04'0 0.0
2018-Apr-12 00:58S 32°42' E 152°04'  
2018-Apr-08 07:13S 32°42' E 152°04'0 0.8
2018-Apr-08 07:00S 32°42' E 152°04'3 5.7
2018-Apr-08 06:30S 32°43' E 152°07'3 6.6
2018-Apr-08 06:00S 32°42' E 152°11'3 6.7
2018-Apr-08 05:30S 32°45' E 152°13'3 5.2
2018-Apr-08 05:00S 32°46' E 152°10'3 5.5
2018-Apr-08 04:29S 32°48' E 152°07'4 5.6
2018-Apr-08 03:51S 32°47' E 152°03'2 6.1
2018-Apr-08 03:29S 32°48' E 152°01'60 2.1
2018-Apr-06 23:06S 33°37' E 151°18'1 6.1
2018-Apr-06 23:00S 33°38' E 151°18'1 2.7
2018-Apr-06 22:28S 33°39' E 151°17'0 0.0
2018-Apr-06 21:58S 33°39' E 151°17'0 0.0
2018-Apr-06 21:28S 33°39' E 151°17'  
Track history (hours):
 
Tides and Currents Weather Stations Pressure Air Temp Water Temp Dewpoint Dewpoint Depression Visibility Wind Speed Wind Dir Waves Ship Positions

WoTS Next

Last reported at 2018-Apr-16 09:00 UTC. Time now 2018-Apr-21 17:07 UTC.
Position S 33°39' E 151°17'.

Length 15 m.

Type: Sailing vessel. MMSI: 503089100.

Date/timePositionNaut miles runAvg speedWind from/ knotsBaromVisibWave heightAir tempDewpointWater temp
2018-Apr-16 09:00S 33°39' E 151°17'60 6.8
2018-Apr-16 00:10S 32°57' E 152°08'2 8.5
2018-Apr-15 23:53S 32°55' E 152°09'3 8.9
2018-Apr-15 23:30S 32°51' E 152°10'4 8.9
2018-Apr-15 23:00S 32°47' E 152°12'4 7.8
2018-Apr-15 22:30S 32°43' E 152°12'3 5.9
2018-Apr-15 22:00S 32°43' E 152°09'3 6.4
2018-Apr-15 21:30S 32°42' E 152°05'1 2.2
2018-Apr-15 20:58S 32°42' E 152°04'0 0.0
2018-Apr-15 03:35S 32°42' E 152°04'0 0.0
2018-Apr-15 03:29S 32°42' E 152°04'0 0.0
2018-Apr-15 02:59S 32°42' E 152°04'0 0.0
2018-Apr-15 02:29S 32°42' E 152°04'0 0.0
2018-Apr-15 01:59S 32°42' E 152°04'0 0.0
2018-Apr-15 01:29S 32°42' E 152°04'0 0.0
2018-Apr-15 00:59S 32°42' E 152°04'0 0.0
2018-Apr-15 00:29S 32°42' E 152°04'0 0.0
2018-Apr-14 23:59S 32°42' E 152°04'0 0.0
2018-Apr-14 23:29S 32°42' E 152°04'0 0.0
2018-Apr-14 05:35S 32°42' E 152°04'0 0.0
2018-Apr-14 05:30S 32°42' E 152°04'2 4.3
2018-Apr-14 05:00S 32°43' E 152°06'3 5.5
2018-Apr-14 04:30S 32°43' E 152°09'3 5.5
2018-Apr-14 04:00S 32°42' E 152°13'3 6.3
2018-Apr-14 03:30S 32°39' E 152°13'4 7.2
2018-Apr-14 03:00S 32°38' E 152°17'3 5.0
2018-Apr-14 02:30S 32°40' E 152°15'3 6.0
2018-Apr-14 02:00S 32°42' E 152°13'4 7.1
2018-Apr-14 01:30S 32°43' E 152°08'0 0.9
2018-Apr-14 01:00S 32°43' E 152°09'2 3.5
2018-Apr-14 00:30S 32°43' E 152°07'3 5.2
2018-Apr-13 23:59S 32°42' E 152°04'0 0.0
2018-Apr-13 23:29S 32°42' E 152°04'0 0.0
2018-Apr-13 22:59S 32°42' E 152°04'0 0.0
2018-Apr-13 05:29S 32°42' E 152°04'1 1.4
2018-Apr-13 04:59S 32°42' E 152°04'3 6.8
2018-Apr-13 04:30S 32°43' E 152°08'3 5.6
2018-Apr-13 04:00S 32°42' E 152°12'2 4.8
2018-Apr-13 03:30S 32°42' E 152°14'1 1.6
2018-Apr-13 03:00S 32°42' E 152°14'2 2.7
2018-Apr-13 02:26S 32°41' E 152°14'2 4.8
2018-Apr-13 02:00S 32°42' E 152°12'3 6.7
2018-Apr-13 01:30S 32°43' E 152°08'1 1.0
2018-Apr-13 01:00S 32°43' E 152°09'2 4.9
2018-Apr-13 00:30S 32°43' E 152°06'2 4.4
2018-Apr-13 00:00S 32°42' E 152°04'0 0.3
2018-Apr-12 23:30S 32°42' E 152°04'0 0.0
2018-Apr-12 23:00S 32°42' E 152°04'0 0.0
2018-Apr-12 02:55S 32°42' E 152°04'0 0.0
2018-Apr-12 02:28S 32°42' E 152°04'0 0.0
2018-Apr-12 01:58S 32°42' E 152°04'0 0.0
2018-Apr-12 01:28S 32°42' E 152°04'0 0.0
2018-Apr-12 00:58S 32°42' E 152°04'  
2018-Apr-08 07:13S 32°42' E 152°04'0 0.8
2018-Apr-08 07:00S 32°42' E 152°04'3 5.7
2018-Apr-08 06:30S 32°43' E 152°07'3 6.6
2018-Apr-08 06:00S 32°42' E 152°11'3 6.7
2018-Apr-08 05:30S 32°45' E 152°13'3 5.2
2018-Apr-08 05:00S 32°46' E 152°10'3 5.5
2018-Apr-08 04:29S 32°48' E 152°07'4 5.6
2018-Apr-08 03:51S 32°47' E 152°03'2 6.1
2018-Apr-08 03:29S 32°48' E 152°01'60 2.1
2018-Apr-06 23:06S 33°37' E 151°18'1 6.1
2018-Apr-06 23:00S 33°38' E 151°18'1 2.7
2018-Apr-06 22:28S 33°39' E 151°17'0 0.0
2018-Apr-06 21:58S 33°39' E 151°17'0 0.0
2018-Apr-06 21:28S 33°39' E 151°17'  

Dump ship's entire track history